createdAt,value
2023-01-29T00:02:06.141Z,78.51
2023-01-29T00:04:32.904Z,77.94
2023-01-29T00:06:59.698Z,78.03
2023-01-29T00:09:27.583Z,77.17
2023-01-29T00:11:54.186Z,76.59
2023-01-29T00:14:20.899Z,76.53
2023-01-29T00:16:47.501Z,77.56
2023-01-29T00:19:14.061Z,76.96
2023-01-29T00:21:40.648Z,76.76
2023-01-29T00:24:07.486Z,76.27
2023-01-29T00:26:34.158Z,76.96
2023-01-29T00:29:02.055Z,77.19
2023-01-29T00:31:29.040Z,77.53
2023-01-29T00:33:55.679Z,77.57
2023-01-29T00:36:23.195Z,76.52
2023-01-29T00:38:58.715Z,76.57
2023-01-29T00:41:48.962Z,76.35
2023-01-29T00:44:34.722Z,77.33
2023-01-29T00:47:02.039Z,76.94
2023-01-29T00:49:30.273Z,78.44
2023-01-29T00:52:17.357Z,77.67
2023-01-29T00:54:43.937Z,77.95
2023-01-29T00:57:10.624Z,77.19
2023-01-29T00:59:37.768Z,77.72
2023-01-29T01:02:23.188Z,76.22
2023-01-29T01:04:49.770Z,76.24
2023-01-29T01:07:16.401Z,77.06
2023-01-29T01:10:01.365Z,76.42
2023-01-29T01:12:28.381Z,77.34
2023-01-29T01:14:55.005Z,76.79
2023-01-29T01:17:21.787Z,77.96
2023-01-29T01:19:48.842Z,78.28
2023-01-29T01:22:15.741Z,76.67
2023-01-29T01:24:43.967Z,76.21
2023-01-29T01:27:10.614Z,76.41
2023-01-29T01:29:37.238Z,78.11
2023-01-29T01:32:04.004Z,78.25
2023-01-29T01:34:30.641Z,78.37
2023-01-29T01:36:57.360Z,79.83
2023-01-29T01:39:24.813Z,79.59
2023-01-29T01:41:56.086Z,79.93
2023-01-29T01:44:50.469Z,80.21
2023-01-29T01:47:20.557Z,79.23
2023-01-29T01:49:47.576Z,80.14
2023-01-29T01:52:16.535Z,81.04
2023-01-29T01:54:44.357Z,80.90
2023-01-29T01:57:17.181Z,81.45
2023-01-29T01:59:53.724Z,81.70
2023-01-29T02:02:38.855Z,80.83
2023-01-29T02:05:25.198Z,81.60
2023-01-29T02:08:11.032Z,79.21
2023-01-29T02:10:47.038Z,81.04
2023-01-29T02:13:17.376Z,83.18
2023-01-29T02:15:48.927Z,82.94
2023-01-29T02:18:18.019Z,79.85
2023-01-29T02:21:15.309Z,80.49
2023-01-29T02:23:54.268Z,81.54
2023-01-29T02:26:33.022Z,82.26
2023-01-29T02:29:25.335Z,81.14
2023-01-29T02:32:20.200Z,83.00
2023-01-29T02:35:18.611Z,82.22
2023-01-29T02:37:57.845Z,83.34
2023-01-29T02:40:40.453Z,85.68
2023-01-29T02:43:45.403Z,84.27
2023-01-29T02:46:37.146Z,84.30
2023-01-29T02:49:40.962Z,84.17
2023-01-29T02:52:18.629Z,84.67
2023-01-29T02:54:57.059Z,84.27
2023-01-29T02:57:30.523Z,84.01
2023-01-29T03:00:27.866Z,82.93
2023-01-29T03:02:57.791Z,84.01
2023-01-29T03:05:53.392Z,84.42
2023-01-29T03:08:37.052Z,84.84
2023-01-29T03:11:06.796Z,82.94
2023-01-29T03:13:53.539Z,82.49
2023-01-29T03:16:30.390Z,83.53
2023-01-29T03:19:10.927Z,82.91
2023-01-29T03:21:51.599Z,85.10
2023-01-29T03:24:44.887Z,84.83
2023-01-29T03:27:34.810Z,83.51
2023-01-29T03:30:23.125Z,82.77
2023-01-29T03:33:03.467Z,84.08
2023-01-29T03:35:36.953Z,83.90
2023-01-29T03:38:07.489Z,83.83
2023-01-29T03:40:42.387Z,83.72
2023-01-29T03:43:29.901Z,83.72
2023-01-29T03:46:11.778Z,84.76
2023-01-29T03:48:48.298Z,84.44
2023-01-29T03:51:25.099Z,84.78
2023-01-29T03:54:04.240Z,84.88
2023-01-29T03:56:42.589Z,84.16
2023-01-29T03:59:22.782Z,84.15
2023-01-29T04:02:19.323Z,84.26
2023-01-29T04:04:51.959Z,83.88
2023-01-29T04:07:24.511Z,84.42
2023-01-29T04:10:28.320Z,85.22
2023-01-29T04:13:15.919Z,85.44
2023-01-29T04:15:50.436Z,85.50
2023-01-29T04:18:19.931Z,84.99
2023-01-29T04:21:07.399Z,84.70
2023-01-29T04:23:34.335Z,83.83
2023-01-29T04:26:18.027Z,84.56
2023-01-29T04:28:56.071Z,84.07
2023-01-29T04:31:31.025Z,83.61
2023-01-29T04:34:12.719Z,84.29
2023-01-29T04:36:57.748Z,85.73
2023-01-29T04:39:30.123Z,84.53
2023-01-29T04:42:12.215Z,84.75
2023-01-29T04:44:49.835Z,85.28
2023-01-29T04:47:45.176Z,84.60
2023-01-29T04:50:26.563Z,84.97
2023-01-29T04:53:24.207Z,84.88
2023-01-29T04:56:13.683Z,84.41
2023-01-29T04:58:45.009Z,84.40
2023-01-29T05:01:16.575Z,86.94
2023-01-29T05:03:46.954Z,87.86
2023-01-29T05:06:15.898Z,87.23
2023-01-29T05:08:42.564Z,86.78
2023-01-29T05:11:10.515Z,86.58
2023-01-29T05:13:40.709Z,86.33
2023-01-29T05:16:19.463Z,85.69
2023-01-29T05:18:46.555Z,86.35
2023-01-29T05:21:13.301Z,86.05
2023-01-29T05:23:39.975Z,86.44
2023-01-29T05:26:06.539Z,86.12
2023-01-29T05:28:33.162Z,86.31
2023-01-29T05:30:59.800Z,85.21
2023-01-29T05:33:29.169Z,84.63
2023-01-29T05:35:57.072Z,84.74
2023-01-29T05:38:23.881Z,85.01
2023-01-29T05:40:50.466Z,86.12
2023-01-29T05:43:22.767Z,87.32
2023-01-29T05:45:54.655Z,87.02
2023-01-29T05:48:21.820Z,86.77
2023-01-29T05:50:48.579Z,86.34
2023-01-29T05:53:15.729Z,86.32
2023-01-29T05:55:46.827Z,85.71
2023-01-29T05:58:13.683Z,86.20
2023-01-29T06:00:41.061Z,86.48
2023-01-29T06:03:07.835Z,85.52
2023-01-29T06:05:38.550Z,86.40
2023-01-29T06:08:05.665Z,86.78
2023-01-29T06:10:32.527Z,87.01
2023-01-29T06:12:59.152Z,86.39
2023-01-29T06:15:26.582Z,87.40
2023-01-29T06:17:57.072Z,86.62
2023-01-29T06:20:24.574Z,86.12
2023-01-29T06:22:51.130Z,85.56
2023-01-29T06:25:17.816Z,85.08
2023-01-29T06:27:44.417Z,84.62
2023-01-29T06:30:11.587Z,84.96
2023-01-29T06:32:38.494Z,84.84
2023-01-29T06:35:05.588Z,84.42
2023-01-29T06:37:32.207Z,84.35
2023-01-29T06:39:58.795Z,83.59
2023-01-29T06:42:28.034Z,84.15
2023-01-29T06:44:58.159Z,84.95
2023-01-29T06:47:25.201Z,84.34
2023-01-29T06:49:52.319Z,84.11
2023-01-29T06:52:19.192Z,84.19
2023-01-29T06:54:45.777Z,84.82
2023-01-29T06:57:12.363Z,84.66
2023-01-29T06:59:38.967Z,85.07
2023-01-29T07:02:05.558Z,85.00
2023-01-29T07:04:32.265Z,84.57
2023-01-29T07:07:01.883Z,84.76
2023-01-29T07:09:28.543Z,84.50
2023-01-29T07:11:55.094Z,85.60
2023-01-29T07:14:21.665Z,85.53
2023-01-29T07:16:48.273Z,85.43
2023-01-29T07:19:14.873Z,85.24
2023-01-29T07:21:41.412Z,85.15
2023-01-29T07:24:08.341Z,84.72
2023-01-29T07:26:34.961Z,85.20
2023-01-29T07:29:01.511Z,84.82
2023-01-29T07:31:28.363Z,84.32
2023-01-29T07:33:55.768Z,84.42
2023-01-29T07:36:22.385Z,83.85
2023-01-29T07:38:50.596Z,83.36
2023-01-29T07:41:17.318Z,83.62
2023-01-29T07:43:45.829Z,83.84
2023-01-29T07:46:12.512Z,82.63
2023-01-29T07:48:39.194Z,83.01
2023-01-29T07:51:06.093Z,82.34
2023-01-29T07:53:32.851Z,82.11
2023-01-29T07:55:59.418Z,81.74
2023-01-29T07:58:26.024Z,81.85
2023-01-29T08:00:52.822Z,82.56
2023-01-29T08:03:20.780Z,81.50
2023-01-29T08:05:47.752Z,81.17
2023-01-29T08:08:14.833Z,82.27
2023-01-29T08:10:42.454Z,82.81
2023-01-29T08:13:09.809Z,81.79
2023-01-29T08:18:23.542Z,81.57
2023-01-29T08:20:50.101Z,81.47
2023-01-29T08:23:16.685Z,81.04
2023-01-29T08:25:43.549Z,80.72
2023-01-29T08:28:11.721Z,79.99
2023-01-29T08:30:38.967Z,79.78
2023-01-29T08:33:05.539Z,79.51
2023-01-29T08:35:32.212Z,80.23
2023-01-29T08:38:01.305Z,78.61
2023-01-29T08:40:29.566Z,79.21
2023-01-29T08:43:06.980Z,79.99
2023-01-29T08:45:37.629Z,81.04
2023-01-29T08:48:04.532Z,80.11
2023-01-29T08:50:31.953Z,80.78
2023-01-29T08:52:59.521Z,81.73
2023-01-29T08:55:26.602Z,80.95
2023-01-29T08:57:53.387Z,81.65
2023-01-29T09:00:20.409Z,82.68
2023-01-29T09:02:47.201Z,82.04
2023-01-29T09:05:13.863Z,81.48
2023-01-29T09:07:40.462Z,81.06
2023-01-29T09:10:08.153Z,80.98
2023-01-29T09:12:34.729Z,81.56
2023-01-29T09:15:01.296Z,81.09
2023-01-29T09:17:27.888Z,80.48
2023-01-29T09:19:54.692Z,81.21
2023-01-29T09:22:21.335Z,79.72
2023-01-29T09:24:47.957Z,79.49
2023-01-29T09:27:14.627Z,79.80
2023-01-29T09:29:41.276Z,79.22
2023-01-29T09:32:07.908Z,79.19
2023-01-29T09:34:34.921Z,79.16
2023-01-29T09:37:01.575Z,78.37
2023-01-29T09:39:28.220Z,78.24
2023-01-29T09:42:00.403Z,78.11
2023-01-29T09:44:38.123Z,76.35
2023-01-29T09:47:11.103Z,75.82
2023-01-29T09:49:43.494Z,75.49
2023-01-29T09:52:27.112Z,76.50
2023-01-29T09:55:02.583Z,75.91
2023-01-29T09:57:51.819Z,74.77
2023-01-29T10:00:34.621Z,74.19
2023-01-29T10:03:32.204Z,73.77
2023-01-29T10:06:06.220Z,72.31
2023-01-29T10:08:32.758Z,71.98
2023-01-29T10:11:21.478Z,73.14
2023-01-29T10:14:20.188Z,74.23
2023-01-29T10:17:05.697Z,73.95
2023-01-29T10:19:46.144Z,74.35
2023-01-29T10:22:42.163Z,74.15
2023-01-29T10:25:15.702Z,73.00
2023-01-29T10:27:49.670Z,74.41
2023-01-29T10:30:45.879Z,73.14
2023-01-29T10:33:25.648Z,72.00
2023-01-29T10:36:00.436Z,71.82
2023-01-29T10:38:46.744Z,72.21
2023-01-29T10:41:39.773Z,70.40
2023-01-29T10:44:45.159Z,69.57
2023-01-29T10:47:27.238Z,69.58
2023-01-29T10:50:23.632Z,69.36
2023-01-29T10:53:22.389Z,69.42
2023-01-29T10:56:22.277Z,68.91
2023-01-29T10:58:54.314Z,67.78
2023-01-29T11:01:21.007Z,68.42
2023-01-29T11:03:57.418Z,67.71
2023-01-29T11:06:35.165Z,66.75
2023-01-29T11:09:24.041Z,66.93
2023-01-29T11:11:55.108Z,67.10
2023-01-29T11:14:26.443Z,66.53
2023-01-29T11:16:53.426Z,65.99
2023-01-29T11:19:44.268Z,66.47
2023-01-29T11:22:21.001Z,65.33
2023-01-29T11:25:09.991Z,64.48
2023-01-29T11:27:50.933Z,65.76
2023-01-29T11:30:28.296Z,65.65
2023-01-29T11:33:09.726Z,65.56
2023-01-29T11:35:36.760Z,65.93
2023-01-29T11:38:28.008Z,67.76
2023-01-29T11:41:06.782Z,65.86
2023-01-29T11:43:34.037Z,67.37
2023-01-29T11:46:07.290Z,66.99
2023-01-29T11:48:42.005Z,66.74
2023-01-29T11:51:12.572Z,67.09
2023-01-29T11:53:43.244Z,66.74
2023-01-29T11:56:24.096Z,67.35
2023-01-29T11:58:52.696Z,65.19
2023-01-29T12:01:30.523Z,65.37
2023-01-29T12:03:57.312Z,65.98
2023-01-29T12:06:33.633Z,63.92
2023-01-29T12:09:02.525Z,64.81
2023-01-29T12:11:30.825Z,65.22
2023-01-29T12:14:00.883Z,65.66
2023-01-29T12:16:33.327Z,64.57
2023-01-29T12:19:20.191Z,65.13
2023-01-29T12:21:52.522Z,66.39
2023-01-29T12:24:19.310Z,66.23
2023-01-29T12:26:51.846Z,66.47
2023-01-29T12:29:25.957Z,66.27
2023-01-29T12:32:12.494Z,65.74
2023-01-29T12:34:50.683Z,64.70
2023-01-29T12:37:40.550Z,64.53
2023-01-29T12:40:16.711Z,67.30
2023-01-29T12:42:48.813Z,68.27
2023-01-29T12:45:18.683Z,69.42
2023-01-29T12:47:53.955Z,69.12
2023-01-29T12:50:31.479Z,69.94
2023-01-29T12:53:07.853Z,68.85
2023-01-29T12:55:43.663Z,67.00
2023-01-29T12:58:22.788Z,66.07
2023-01-29T13:00:52.940Z,66.54
2023-01-29T13:03:28.845Z,66.55
2023-01-29T13:06:16.575Z,66.98
2023-01-29T13:08:56.215Z,67.17
2023-01-29T13:11:32.811Z,66.74
2023-01-29T13:14:20.569Z,66.58
2023-01-29T13:16:51.532Z,66.71
2023-01-29T13:19:27.488Z,67.77
2023-01-29T13:21:57.563Z,69.02
2023-01-29T13:24:27.462Z,68.63
2023-01-29T13:26:54.154Z,67.93
2023-01-29T13:29:30.108Z,67.84
2023-01-29T13:32:02.165Z,68.05
2023-01-29T13:34:35.409Z,67.49
2023-01-29T13:37:09.816Z,67.85
2023-01-29T13:39:46.536Z,68.65
2023-01-29T13:42:23.159Z,67.89
2023-01-29T13:44:52.885Z,67.35
2023-01-29T13:47:37.542Z,67.19
2023-01-29T13:50:07.848Z,67.47
2023-01-29T13:52:39.743Z,66.84
2023-01-29T13:55:31.017Z,66.93
2023-01-29T13:58:00.318Z,67.09
2023-01-29T14:00:32.891Z,66.68
2023-01-29T14:03:08.555Z,67.12
2023-01-29T14:05:41.685Z,67.27
2023-01-29T14:08:14.128Z,67.25
2023-01-29T14:10:42.500Z,67.47
2023-01-29T14:13:18.261Z,67.21
2023-01-29T14:16:05.189Z,66.68
2023-01-29T14:18:34.243Z,67.48
2023-01-29T14:21:06.945Z,67.50
2023-01-29T14:23:49.247Z,68.16
2023-01-29T14:26:32.246Z,68.94
2023-01-29T14:29:04.393Z,68.87
2023-01-29T14:32:06.760Z,68.33
2023-01-29T14:34:36.103Z,68.32
2023-01-29T14:37:14.943Z,68.94
2023-01-29T14:39:58.194Z,69.14
2023-01-29T14:42:33.877Z,68.95
2023-01-29T14:45:21.347Z,68.87
2023-01-29T14:47:47.867Z,69.53
2023-01-29T14:50:31.704Z,68.93
2023-01-29T14:53:16.847Z,68.84
2023-01-29T14:55:55.095Z,68.96
2023-01-29T14:58:48.138Z,69.48
2023-01-29T15:01:26.963Z,69.44
2023-01-29T15:04:14.768Z,69.69
2023-01-29T15:06:47.555Z,69.21
2023-01-29T15:09:36.653Z,68.98
2023-01-29T15:12:18.772Z,69.23
2023-01-29T15:15:26.126Z,69.45
2023-01-29T15:18:29.082Z,69.97
2023-01-29T15:21:05.595Z,70.06
2023-01-29T15:23:34.380Z,70.11
2023-01-29T15:26:04.287Z,70.57
2023-01-29T15:28:33.016Z,71.01
2023-01-29T15:31:01.726Z,71.66
2023-01-29T15:33:28.955Z,71.91
2023-01-29T15:36:08.029Z,72.18
2023-01-29T15:38:35.704Z,72.15
2023-01-29T15:41:17.865Z,72.70
2023-01-29T15:43:48.442Z,73.40
2023-01-29T15:46:39.647Z,73.55
2023-01-29T15:49:09.828Z,73.49
2023-01-29T15:51:36.937Z,73.77
2023-01-29T15:54:05.708Z,73.81
2023-01-29T15:56:49.300Z,74.02
2023-01-29T15:59:22.808Z,74.98
2023-01-29T16:01:49.517Z,74.38
2023-01-29T16:04:25.688Z,74.44
2023-01-29T16:06:54.743Z,74.74
2023-01-29T16:09:25.310Z,75.09
2023-01-29T16:11:54.561Z,76.08
2023-01-29T16:14:25.487Z,76.27
2023-01-29T16:16:53.563Z,76.76
2023-01-29T16:19:22.219Z,77.31
2023-01-29T16:21:56.587Z,77.13
2023-01-29T16:24:24.974Z,77.19
2023-01-29T16:26:58.100Z,77.04
2023-01-29T16:29:31.191Z,77.22
2023-01-29T16:32:01.951Z,77.36
2023-01-29T16:34:28.626Z,77.71
2023-01-29T16:36:56.064Z,78.41
2023-01-29T16:39:32.598Z,78.29
2023-01-29T16:42:17.397Z,79.25
2023-01-29T16:44:55.570Z,78.45
2023-01-29T16:47:41.476Z,79.79
2023-01-29T16:50:27.295Z,79.42
2023-01-29T16:53:01.242Z,79.91
2023-01-29T16:55:35.747Z,79.71
2023-01-29T16:58:18.129Z,79.60
2023-01-29T17:01:01.110Z,79.32
2023-01-29T17:03:30.295Z,80.38
2023-01-29T17:05:56.950Z,79.54
2023-01-29T17:08:33.530Z,79.52
2023-01-29T17:11:01.160Z,80.19
2023-01-29T17:13:36.052Z,80.41
2023-01-29T17:16:20.234Z,80.47
2023-01-29T17:18:46.828Z,80.69
2023-01-29T17:21:13.420Z,80.89
2023-01-29T17:23:40.007Z,81.31
2023-01-29T17:26:10.164Z,82.18
2023-01-29T17:28:37.385Z,81.43
2023-01-29T17:31:06.918Z,81.22
2023-01-29T17:33:35.696Z,81.63
2023-01-29T17:36:02.278Z,81.12
2023-01-29T17:38:28.894Z,81.46
2023-01-29T17:41:23.575Z,80.94
2023-01-29T17:43:50.969Z,81.04
2023-01-29T17:46:19.023Z,80.80
2023-01-29T17:48:46.469Z,81.51
2023-01-29T17:51:15.136Z,81.18
2023-01-29T17:53:45.850Z,82.50
2023-01-29T17:56:35.010Z,82.06
2023-01-29T17:59:02.011Z,81.48
2023-01-29T18:01:28.589Z,81.25
2023-01-29T18:03:55.284Z,81.75
2023-01-29T18:06:29.795Z,81.77
2023-01-29T18:08:57.135Z,81.46
2023-01-29T18:11:24.139Z,81.36
2023-01-29T18:13:51.386Z,81.83
2023-01-29T18:16:18.542Z,81.69
2023-01-29T18:18:45.203Z,82.07
2023-01-29T18:21:11.774Z,82.20
2023-01-29T18:23:38.387Z,82.15
2023-01-29T18:26:05.978Z,82.24
2023-01-29T18:28:33.205Z,82.08
2023-01-29T18:31:05.899Z,82.77
2023-01-29T18:33:34.244Z,83.37
2023-01-29T18:36:01.579Z,82.48
2023-01-29T18:38:28.168Z,82.52
2023-01-29T18:41:02.926Z,82.86
2023-01-29T18:43:29.812Z,82.21
2023-01-29T18:45:59.925Z,83.12
2023-01-29T18:48:26.688Z,82.67
2023-01-29T18:50:53.315Z,82.69
2023-01-29T18:53:20.163Z,82.62
2023-01-29T18:55:58.121Z,82.60
2023-01-29T18:58:34.221Z,82.67
2023-01-29T19:01:09.408Z,82.65
2023-01-29T19:03:37.700Z,82.65
2023-01-29T19:06:06.789Z,82.90
2023-01-29T19:08:34.490Z,82.70
2023-01-29T19:11:04.204Z,82.95
2023-01-29T19:13:34.661Z,82.65
2023-01-29T19:16:02.437Z,82.67
2023-01-29T19:18:28.999Z,82.13
2023-01-29T19:20:55.650Z,82.07
2023-01-29T19:23:22.508Z,82.58
2023-01-29T19:25:49.161Z,82.29
2023-01-29T19:28:15.874Z,82.05
2023-01-29T19:30:42.550Z,82.30
2023-01-29T19:33:10.461Z,81.73
2023-01-29T19:35:37.227Z,81.97
2023-01-29T19:38:04.393Z,82.08
2023-01-29T19:40:31.210Z,82.61
2023-01-29T19:42:58.430Z,82.21
2023-01-29T19:45:42.075Z,82.67
2023-01-29T19:48:14.772Z,82.49
2023-01-29T19:50:42.546Z,83.09
2023-01-29T19:53:09.943Z,83.24
2023-01-29T19:55:36.675Z,83.71
2023-01-29T19:58:05.108Z,83.26
2023-01-29T20:00:31.931Z,83.71
2023-01-29T20:02:59.130Z,83.53
2023-01-29T20:05:27.326Z,83.62
2023-01-29T20:07:54.286Z,83.38
2023-01-29T20:10:21.291Z,84.08
2023-01-29T20:12:47.863Z,83.88
2023-01-29T20:15:15.326Z,83.77
2023-01-29T20:17:42.445Z,83.62
2023-01-29T20:20:09.984Z,84.05
2023-01-29T20:22:36.702Z,85.08
2023-01-29T20:25:03.379Z,83.68
2023-01-29T20:27:30.100Z,83.62
2023-01-29T20:29:57.397Z,84.43
2023-01-29T20:32:25.793Z,84.75
2023-01-29T20:34:52.525Z,84.38
2023-01-29T20:37:19.675Z,84.19
2023-01-29T20:39:47.115Z,83.87
2023-01-29T20:42:13.799Z,84.36
2023-01-29T20:44:40.468Z,84.37
2023-01-29T20:47:07.100Z,84.92
2023-01-29T20:49:33.924Z,85.02
2023-01-29T20:52:00.527Z,85.38
2023-01-29T20:54:27.247Z,85.65
2023-01-29T20:56:54.293Z,84.85
2023-01-29T20:59:21.584Z,85.03
2023-01-29T21:01:48.518Z,84.81
2023-01-29T21:04:15.559Z,85.43
2023-01-29T21:06:42.506Z,85.44
2023-01-29T21:09:09.119Z,85.46
2023-01-29T21:11:35.867Z,85.11
2023-01-29T21:14:02.587Z,85.44
2023-01-29T21:16:29.434Z,85.24
2023-01-29T21:18:59.609Z,85.32
2023-01-29T21:21:26.845Z,85.55
2023-01-29T21:23:54.266Z,85.40
2023-01-29T21:26:20.986Z,85.38
2023-01-29T21:28:47.626Z,85.75
2023-01-29T21:31:16.224Z,86.06
2023-01-29T21:33:43.209Z,86.30
2023-01-29T21:36:10.451Z,85.92
2023-01-29T21:38:37.151Z,86.32
2023-01-29T21:41:06.134Z,86.62
2023-01-29T21:43:33.108Z,86.89
2023-01-29T21:46:04.887Z,87.00
2023-01-29T21:48:31.786Z,87.09
2023-01-29T21:50:58.387Z,87.17
2023-01-29T21:53:25.088Z,86.92
2023-01-29T21:55:51.821Z,86.87
2023-01-29T21:58:19.858Z,87.37
2023-01-29T22:00:48.793Z,87.20
2023-01-29T22:03:15.698Z,87.75
2023-01-29T22:05:42.488Z,87.70
2023-01-29T22:08:09.919Z,87.60
2023-01-29T22:10:37.216Z,87.69
2023-01-29T22:13:03.914Z,87.08
2023-01-29T22:15:30.796Z,87.45
2023-01-29T22:17:57.354Z,87.58
2023-01-29T22:20:30.848Z,87.93
2023-01-29T22:23:03.330Z,87.98
2023-01-29T22:25:34.087Z,87.73
2023-01-29T22:28:01.609Z,87.75
2023-01-29T22:30:29.208Z,87.90
2023-01-29T22:32:56.406Z,87.65
2023-01-29T22:35:23.843Z,88.50
2023-01-29T22:37:50.592Z,88.13
2023-01-29T22:40:17.888Z,88.52
2023-01-29T22:42:44.685Z,88.42
2023-01-29T22:45:12.233Z,88.72
2023-01-29T22:47:38.889Z,89.11
2023-01-29T22:50:06.526Z,88.55
2023-01-29T22:52:42.874Z,88.92
2023-01-29T22:55:11.039Z,88.70
2023-01-29T22:57:38.339Z,88.68
2023-01-29T23:00:12.639Z,88.81
2023-01-29T23:02:39.279Z,89.20
2023-01-29T23:05:06.527Z,89.85
2023-01-29T23:07:33.667Z,89.84
2023-01-29T23:10:00.283Z,89.86
2023-01-29T23:12:26.934Z,89.88
2023-01-29T23:14:53.482Z,89.74
2023-01-29T23:17:20.291Z,89.59
2023-01-29T23:19:46.855Z,89.28
2023-01-29T23:22:13.446Z,89.96
2023-01-29T23:24:40.085Z,89.96
2023-01-29T23:27:15.377Z,89.67
2023-01-29T23:29:43.522Z,89.42
2023-01-29T23:32:12.166Z,89.41
2023-01-29T23:34:39.092Z,89.31
2023-01-29T23:37:05.753Z,89.72
2023-01-29T23:39:32.329Z,89.47
2023-01-29T23:41:59.219Z,90.27
2023-01-29T23:44:25.916Z,90.35
2023-01-29T23:46:52.834Z,90.69
2023-01-29T23:49:19.527Z,90.76
2023-01-29T23:51:50.788Z,91.04
2023-01-29T23:54:17.903Z,91.15
2023-01-29T23:56:45.302Z,91.38
2023-01-29T23:59:12.120Z,90.98
